Flugplatz Nuremberg

Bericht für EDDN

vom 25.10. um 16:20 UTC

Wind 5 kt aus 110°

Sichtweite 10 km oder mehr

gute Sicht, keine Wolken < 5000 ft, keine CB, keine Wettererscheinungen (CAVOK)

Temperatur 10.0°C

Taupunkt 6.0°C

Luftfeuchtigkeit 76%

Luftdruck 1020 hPa

keine wesentliche Wetteränderung innerhalb den nächsten 2 Stunden zu erwarten

EDDN 251620Z 11005KT CAVOK 10/06 Q1020 NOSIG

Prognose für EDDN

vom 25.10. um 11:00 UTC

Zwischen 12:00 UTC und 08:00 UTC

Wind 5 kt aus 120°

Sichtweite 10 km oder mehr

keine signifikanten Wettererscheinungen

keine Wolken


Am 26.10. zwischen 06:00 UTC und 10:00 UTC zeitweise

aufgebrochene Bewölkung in 1200 ft


Am 26.10. zwischen 08:00 und 10:00 UTC übergehend zu

Wind 5 kt aus 240°

Sichtweite 10 km oder mehr

keine signifikanten Wettererscheinungen

keine Wolken

TAF EDDN 251100Z 2512/2612 12005KT CAVOK TEMPO 2606/2610 BKN012 BECMG 2608/2610 24005KT
Impressum